Decoded Metar for KTTN (TRENTON in NJ, USA) (IATA:TTN) | Meteo·Mobile Aviation Weather
aviador You're here:

KTTN Decoded Metar

TRENTON in NJ, USA
Report Time2019-01-20 09:53:00
UTC Time2019-01-20 10:35:04
Flight Rules lifr LIFR
Wind070° at 08 Gusting to 18 kt
W.Decomp.*RWY 06: 7.4 kt HW 3.0 kt RCW
RWY 16: 1.7 kt HW 7.8 kt LCW
W.Rank070° ranks 22
Current wind is above 070° avg. (7.1)
Visibility9656 m
Phenomena:Rain
Mist
Clouds:Overcast 004 Hf
Expected CloudBase > 400 ft AGL from Temp-Dew spread
Ceiling400 ft
Temp03°C (ISA -12)
Dew Point02°C (93% RH)
AAT-1.6°C
QNH998 hPa
Density Alt-604 ft
Elevation194 ft
Report Wrong Elevation
Raw Report
KTTN 200953Z AUTO 07008G18KT 6SM RA BR OVC004 03/02 A2947 RMK AO2
UPE0859RAB0859 SLP974 P0004 T00280022=

Extra information for KTTN:More info

Metar Taf Metar & Taf Last 4 Metars F.Rules Stats Wind Profile Meteogram Temp Stats Airport Information Weather charts Add Link Nearby VenuesMetar ALERT Operation Metar Decoded Social comments

AIRNAV info for KTTN